createdAt,value
2023-04-23T00:02:03.006Z,5.75
2023-04-23T00:05:10.506Z,5.85
2023-04-23T00:08:19.457Z,6.70
2023-04-23T00:11:25.137Z,5.80
2023-04-23T00:14:32.140Z,5.90
2023-04-23T00:17:37.823Z,6.30
2023-04-23T00:20:45.012Z,6.10
2023-04-23T00:23:53.160Z,5.72
2023-04-23T00:27:00.090Z,5.68
2023-04-23T00:30:05.538Z,6.90
2023-04-23T00:33:10.907Z,6.10
2023-04-23T00:36:16.623Z,6.00
2023-04-23T00:39:24.302Z,6.90
2023-04-23T00:42:29.753Z,6.35
2023-04-23T00:45:35.195Z,5.93
2023-04-23T00:48:42.107Z,6.32
2023-04-23T00:51:47.616Z,6.90
2023-04-23T00:54:55.585Z,6.57
2023-04-23T00:58:01.046Z,7.40
2023-04-23T01:01:07.372Z,6.78
2023-04-23T01:04:14.193Z,6.50
2023-04-23T01:07:24.434Z,6.45
2023-04-23T01:10:32.858Z,6.85
2023-04-23T01:13:38.679Z,6.28
2023-04-23T01:16:43.893Z,6.20
2023-04-23T01:19:50.286Z,7.22
2023-04-23T01:22:58.000Z,7.10
2023-04-23T01:26:03.464Z,6.85
2023-04-23T01:29:08.559Z,7.47
2023-04-23T01:32:15.538Z,7.40
2023-04-23T01:35:22.768Z,6.85
2023-04-23T01:38:36.717Z,6.72
2023-04-23T01:41:42.181Z,7.85
2023-04-23T01:44:47.559Z,6.82
2023-04-23T01:47:54.226Z,7.50
2023-04-23T01:50:59.775Z,6.78
2023-04-23T01:54:09.595Z,7.78
2023-04-23T01:57:15.460Z,7.28
2023-04-23T02:00:20.983Z,7.18
2023-04-23T02:03:28.663Z,7.18
2023-04-23T02:06:33.810Z,7.47
2023-04-23T02:09:42.173Z,6.55
2023-04-23T02:12:47.811Z,7.13
2023-04-23T02:15:53.186Z,8.30
2023-04-23T02:18:58.262Z,6.97
2023-04-23T02:22:03.773Z,6.75
2023-04-23T02:25:12.294Z,7.20
2023-04-23T02:28:20.260Z,7.60
2023-04-23T02:31:27.730Z,7.78
2023-04-23T02:34:33.284Z,7.25
2023-04-23T02:37:38.422Z,7.38
2023-04-23T02:40:46.526Z,8.30
2023-04-23T02:43:56.379Z,7.22
2023-04-23T02:47:03.409Z,7.28
2023-04-23T02:50:11.605Z,7.18
2023-04-23T02:53:17.052Z,7.60
2023-04-23T02:56:24.615Z,7.20
2023-04-23T02:59:30.283Z,7.25
2023-04-23T03:02:35.381Z,7.57
2023-04-23T03:05:40.847Z,7.80
2023-04-23T03:08:46.288Z,7.60
2023-04-23T03:11:54.195Z,7.80
2023-04-23T03:14:59.217Z,8.25
2023-04-23T03:18:04.733Z,7.82
2023-04-23T03:21:09.862Z,8.10
2023-04-23T03:24:19.811Z,7.63
2023-04-23T03:27:27.790Z,7.25
2023-04-23T03:30:33.482Z,8.02
2023-04-23T03:33:38.502Z,8.40
2023-04-23T03:36:48.890Z,7.85
2023-04-23T03:39:54.321Z,9.10
2023-04-23T03:43:02.436Z,8.27
2023-04-23T03:46:07.720Z,7.60
2023-04-23T03:49:15.307Z,7.72
2023-04-23T03:52:21.045Z,7.97
2023-04-23T03:55:27.407Z,9.13
2023-04-23T03:58:35.007Z,7.60
2023-04-23T04:01:40.383Z,8.70
2023-04-23T04:04:46.782Z,8.15
2023-04-23T04:07:52.680Z,8.93
2023-04-23T04:10:57.676Z,8.35
2023-04-23T04:14:05.621Z,8.70
2023-04-23T04:17:15.197Z,7.97
2023-04-23T04:20:21.952Z,8.32
2023-04-23T04:23:27.116Z,7.60
2023-04-23T04:26:32.978Z,7.07
2023-04-23T04:29:41.061Z,8.27
2023-04-23T04:32:46.620Z,8.02
2023-04-23T04:35:52.185Z,6.97
2023-04-23T04:38:58.507Z,8.32
2023-04-23T04:42:03.532Z,9.35
2023-04-23T04:45:14.313Z,7.72
2023-04-23T04:48:21.474Z,8.40
2023-04-23T04:51:27.347Z,9.02
2023-04-23T04:54:32.316Z,7.68
2023-04-23T04:57:41.006Z,8.57
2023-04-23T05:00:49.318Z,8.70
2023-04-23T05:03:54.830Z,8.02
2023-04-23T05:07:00.064Z,8.05
2023-04-23T05:10:05.744Z,8.23
2023-04-23T05:13:12.521Z,9.25
2023-04-23T05:16:20.577Z,7.85
2023-04-23T05:19:25.582Z,7.70
2023-04-23T05:22:30.995Z,8.32
2023-04-23T05:25:36.273Z,7.75
2023-04-23T05:28:41.846Z,7.88
2023-04-23T05:31:51.913Z,8.23
2023-04-23T05:35:00.199Z,8.13
2023-04-23T05:38:06.546Z,8.13
2023-04-23T05:41:11.960Z,8.75
2023-04-23T05:44:20.528Z,8.25
2023-04-23T05:47:30.647Z,7.85
2023-04-23T05:50:35.665Z,7.68
2023-04-23T05:53:40.994Z,7.22
2023-04-23T05:56:48.475Z,8.18
2023-04-23T05:59:56.951Z,7.07
2023-04-23T06:03:04.633Z,8.02
2023-04-23T06:06:10.320Z,8.30
2023-04-23T06:09:16.936Z,7.82
2023-04-23T06:12:22.314Z,8.70
2023-04-23T06:15:27.670Z,7.80
2023-04-23T06:18:35.611Z,8.70
2023-04-23T06:21:41.977Z,7.57
2023-04-23T06:24:47.492Z,7.57
2023-04-23T06:27:52.532Z,7.53
2023-04-23T06:30:57.969Z,7.88
2023-04-23T06:34:05.610Z,7.93
2023-04-23T06:37:11.734Z,7.47
2023-04-23T06:40:19.421Z,7.55
2023-04-23T06:43:25.020Z,7.95
2023-04-23T06:46:30.305Z,7.53
2023-04-23T06:49:41.387Z,7.93
2023-04-23T06:52:46.367Z,7.45
2023-04-23T06:55:53.167Z,7.47
2023-04-23T06:58:58.158Z,7.78
2023-04-23T07:02:03.611Z,7.43
2023-04-23T07:05:11.985Z,7.53
2023-04-23T07:08:17.483Z,7.88
2023-04-23T07:11:22.550Z,7.20
2023-04-23T07:14:28.509Z,7.60
2023-04-23T07:17:34.002Z,8.10
2023-04-23T07:20:41.984Z,7.57
2023-04-23T07:23:49.416Z,7.18
2023-04-23T07:26:55.157Z,7.05
2023-04-23T07:30:02.049Z,7.47
2023-04-23T07:33:09.214Z,7.43
2023-04-23T07:36:19.790Z,7.72
2023-04-23T07:42:34.807Z,7.35
2023-04-23T07:45:42.538Z,7.93
2023-04-23T07:48:48.359Z,6.53
2023-04-23T07:51:57.479Z,7.53
2023-04-23T07:55:02.595Z,7.00
2023-04-23T07:58:08.464Z,6.78
2023-04-23T08:01:15.818Z,6.93
2023-04-23T08:04:42.466Z,6.78
2023-04-23T08:08:13.128Z,6.65
2023-04-23T08:11:24.775Z,6.40
2023-04-23T08:15:03.232Z,7.20
2023-04-23T08:18:11.670Z,7.05
2023-04-23T08:21:17.099Z,6.43
2023-04-23T08:24:25.226Z,6.88
2023-04-23T08:27:30.713Z,7.22
2023-04-23T08:30:38.762Z,6.90
2023-04-23T08:33:44.887Z,6.75
2023-04-23T08:36:50.493Z,6.85
2023-04-23T08:39:58.179Z,6.85
2023-04-23T08:43:06.651Z,6.97
2023-04-23T08:46:14.920Z,7.20
2023-04-23T08:49:21.021Z,6.63
2023-04-23T08:52:33.578Z,6.68
2023-04-23T08:55:44.199Z,6.90
2023-04-23T08:58:50.530Z,6.53
2023-04-23T09:01:57.009Z,6.07
2023-04-23T09:05:02.428Z,6.28
2023-04-23T09:08:10.298Z,7.07
2023-04-23T09:11:20.636Z,6.75
2023-04-23T09:14:26.480Z,6.53
2023-04-23T09:17:32.477Z,6.53
2023-04-23T09:20:37.977Z,6.10
2023-04-23T09:23:44.277Z,5.72
2023-04-23T09:26:55.710Z,5.63
2023-04-23T09:30:03.357Z,6.85
2023-04-23T09:33:08.764Z,5.93
2023-04-23T09:36:14.095Z,5.68
2023-04-23T09:39:20.151Z,5.50
2023-04-23T09:49:20.498Z,4.32
2023-04-23T09:52:36.300Z,4.28
2023-04-23T09:55:52.769Z,4.13
2023-04-23T09:59:46.797Z,4.13
2023-04-23T10:03:15.644Z,4.15
2023-04-23T10:06:40.696Z,4.22
2023-04-23T10:09:52.941Z,3.80
2023-04-23T10:13:02.297Z,4.10
2023-04-23T10:16:22.219Z,4.00
2023-04-23T10:19:32.605Z,4.18
2023-04-23T10:22:41.469Z,3.97
2023-04-23T10:25:46.544Z,3.60
2023-04-23T10:28:53.540Z,3.67
2023-04-23T10:32:02.670Z,3.72
2023-04-23T10:35:10.973Z,3.83
2023-04-23T10:38:16.645Z,3.92
2023-04-23T10:41:28.206Z,3.95
2023-04-23T10:47:49.801Z,3.05
2023-04-23T10:54:14.251Z,3.70
2023-04-23T10:57:33.806Z,4.25
2023-04-23T11:00:47.898Z,4.32
2023-04-23T11:03:55.741Z,4.05
2023-04-23T11:07:01.679Z,3.65
2023-04-23T11:10:15.453Z,3.67
2023-04-23T11:13:26.700Z,3.45
2023-04-23T11:16:31.769Z,3.50
2023-04-23T11:19:48.064Z,3.78
2023-04-23T11:22:53.673Z,4.88
2023-04-23T11:25:59.160Z,4.38
2023-04-23T11:29:04.464Z,4.70
2023-04-23T11:32:11.103Z,5.00
2023-04-23T11:35:20.429Z,6.97
2023-04-23T11:38:26.468Z,6.97
2023-04-23T11:41:33.605Z,8.30
2023-04-23T11:44:41.437Z,6.97
2023-04-23T11:47:47.580Z,6.43
2023-04-23T11:50:56.788Z,6.65
2023-04-23T11:54:06.395Z,7.40
2023-04-23T11:57:12.127Z,9.35
2023-04-23T12:00:19.314Z,9.35
2023-04-23T12:03:30.586Z,9.32
2023-04-23T12:06:40.044Z,9.73
2023-04-23T12:09:55.907Z,9.45
2023-04-23T12:13:01.618Z,9.38
2023-04-23T12:16:10.413Z,9.23
2023-04-23T12:19:19.527Z,10.13
2023-04-23T12:22:32.312Z,9.25
2023-04-23T12:25:37.714Z,9.85
2023-04-23T12:28:49.319Z,8.95
2023-04-23T12:31:55.180Z,9.77
2023-04-23T12:35:00.576Z,11.10
2023-04-23T12:38:10.020Z,11.45
2023-04-23T12:41:20.938Z,12.98
2023-04-23T12:44:26.701Z,10.32
2023-04-23T12:47:32.622Z,12.57
2023-04-23T12:50:38.292Z,11.32
2023-04-23T12:53:46.754Z,7.80
2023-04-23T12:56:51.982Z,9.68
2023-04-23T12:59:58.124Z,7.82
2023-04-23T13:03:03.841Z,7.63
2023-04-23T13:06:12.544Z,6.55
2023-04-23T13:09:28.743Z,6.28
2023-04-23T13:12:41.759Z,7.45
2023-04-23T13:16:11.382Z,8.07
2023-04-23T13:19:31.434Z,9.52
2023-04-23T13:26:21.228Z,9.18
2023-04-23T13:29:59.674Z,10.15
2023-04-23T13:36:37.628Z,6.95
2023-04-23T13:39:43.697Z,8.15
2023-04-23T13:42:53.448Z,8.63
2023-04-23T13:46:24.043Z,9.00
2023-04-23T13:49:51.423Z,9.65
2023-04-23T13:53:21.448Z,8.25
2023-04-23T13:56:37.424Z,6.78
2023-04-23T14:00:00.743Z,7.32
2023-04-23T14:03:16.709Z,6.05
2023-04-23T14:06:24.086Z,7.88
2023-04-23T14:09:30.254Z,6.47
2023-04-23T14:12:35.384Z,5.68
2023-04-23T14:15:48.362Z,6.53
2023-04-23T14:18:53.900Z,6.05
2023-04-23T14:21:59.590Z,7.38
2023-04-23T14:25:05.595Z,8.05
2023-04-23T14:28:31.758Z,7.57
2023-04-23T14:31:48.224Z,7.28
2023-04-23T14:34:59.518Z,6.93
2023-04-23T14:38:07.215Z,6.38
2023-04-23T14:44:45.971Z,6.78
2023-04-23T14:48:04.094Z,7.53
2023-04-23T14:51:34.987Z,5.22
2023-04-23T14:54:46.554Z,7.72
2023-04-23T14:58:08.613Z,8.07
2023-04-23T15:01:35.227Z,6.97
2023-04-23T15:04:56.271Z,5.72
2023-04-23T15:08:46.281Z,5.93
2023-04-23T15:23:15.559Z,8.07
2023-04-23T15:26:20.832Z,5.40
2023-04-23T15:29:26.376Z,6.15
2023-04-23T15:32:31.403Z,5.75
2023-04-23T15:35:38.232Z,5.35
2023-04-23T15:38:56.356Z,4.80
2023-04-23T15:42:03.638Z,5.50
2023-04-23T15:45:09.381Z,5.50
2023-04-23T15:48:16.343Z,3.78
2023-04-23T15:51:21.669Z,5.68
2023-04-23T15:54:34.354Z,5.40
2023-04-23T15:57:39.694Z,5.28
2023-04-23T16:00:45.235Z,6.68
2023-04-23T16:07:06.915Z,6.07
2023-04-23T16:10:16.044Z,5.95
2023-04-23T16:13:23.811Z,6.10
2023-04-23T16:16:30.853Z,7.35
2023-04-23T16:19:36.291Z,8.10
2023-04-23T16:22:45.518Z,6.78
2023-04-23T16:25:56.127Z,7.55
2023-04-23T16:32:09.772Z,7.75
2023-04-23T16:35:14.827Z,6.10
2023-04-23T16:38:21.341Z,7.00
2023-04-23T16:41:29.375Z,7.30
2023-04-23T16:44:37.922Z,6.57
2023-04-23T16:47:43.779Z,7.30
2023-04-23T16:50:50.068Z,7.50
2023-04-23T16:53:57.856Z,7.10
2023-04-23T16:57:09.971Z,5.57
2023-04-23T17:00:18.627Z,5.13
2023-04-23T17:03:24.368Z,5.30
2023-04-23T17:06:30.215Z,5.80
2023-04-23T17:17:28.271Z,7.10
2023-04-23T17:20:51.405Z,7.35
2023-04-23T17:24:14.163Z,6.43
2023-04-23T17:27:26.545Z,6.13
2023-04-23T17:30:54.634Z,6.28
2023-04-23T17:34:43.029Z,5.85
2023-04-23T17:41:42.461Z,7.28
2023-04-23T17:44:47.858Z,5.68
2023-04-23T17:47:56.475Z,6.72
2023-04-23T17:51:02.203Z,6.28
2023-04-23T17:54:07.817Z,6.38
2023-04-23T17:57:15.362Z,6.95
2023-04-23T18:00:20.754Z,6.13
2023-04-23T18:03:33.858Z,6.18
2023-04-23T18:06:39.028Z,6.07
2023-04-23T18:09:45.970Z,6.82
2023-04-23T18:12:51.601Z,7.18
2023-04-23T18:15:58.614Z,6.25
2023-04-23T18:19:06.713Z,7.05
2023-04-23T18:22:14.198Z,6.82
2023-04-23T18:25:25.366Z,7.00
2023-04-23T18:28:31.224Z,6.53
2023-04-23T18:31:36.950Z,6.88
2023-04-23T18:34:49.113Z,6.65
2023-04-23T18:37:57.046Z,7.10
2023-04-23T18:41:05.141Z,6.53
2023-04-23T18:44:13.394Z,6.95
2023-04-23T18:47:23.132Z,7.60
2023-04-23T18:50:47.648Z,9.95
2023-04-23T18:53:53.002Z,8.32
2023-04-23T18:56:58.225Z,11.73
2023-04-23T19:03:27.153Z,7.30
2023-04-23T19:06:36.508Z,6.28
2023-04-23T19:09:47.178Z,6.85
2023-04-23T19:12:55.122Z,7.55
2023-04-23T19:16:00.631Z,6.63
2023-04-23T19:19:07.026Z,7.05
2023-04-23T19:22:18.577Z,6.38
2023-04-23T19:25:24.380Z,6.95
2023-04-23T19:28:32.098Z,7.07
2023-04-23T19:31:37.782Z,6.25
2023-04-23T19:34:42.894Z,8.20
2023-04-23T19:37:53.026Z,9.18
2023-04-23T19:41:03.773Z,8.45
2023-04-23T19:44:09.608Z,8.68
2023-04-23T19:47:18.894Z,8.45
2023-04-23T19:50:24.563Z,8.15
2023-04-23T19:53:39.787Z,8.27
2023-04-23T19:56:51.604Z,8.18
2023-04-23T19:59:59.278Z,8.82
2023-04-23T20:03:06.081Z,8.93
2023-04-23T20:06:11.164Z,9.43
2023-04-23T20:09:25.379Z,9.93
2023-04-23T20:12:30.475Z,9.60
2023-04-23T20:15:36.941Z,9.35
2023-04-23T20:18:45.672Z,10.45
2023-04-23T20:21:52.159Z,10.48
2023-04-23T20:25:02.122Z,10.25
2023-04-23T20:28:09.223Z,10.38
2023-04-23T20:31:14.560Z,11.00
2023-04-23T20:34:20.048Z,9.90
2023-04-23T20:37:27.551Z,10.68
2023-04-23T20:40:39.025Z,9.95
2023-04-23T20:43:45.640Z,9.35
2023-04-23T20:46:51.671Z,10.18
2023-04-23T20:49:57.971Z,9.02
2023-04-23T20:53:05.164Z,8.63
2023-04-23T20:56:15.607Z,9.02
2023-04-23T20:59:22.303Z,9.07
2023-04-23T21:02:27.616Z,8.90
2023-04-23T21:05:37.821Z,8.85
2023-04-23T21:08:43.096Z,8.55
2023-04-23T21:11:51.276Z,9.23
2023-04-23T21:14:56.929Z,8.32
2023-04-23T21:18:02.874Z,8.82
2023-04-23T21:21:08.350Z,9.55
2023-04-23T21:24:14.013Z,8.48
2023-04-23T21:27:27.592Z,9.00
2023-04-23T21:30:39.543Z,10.13
2023-04-23T21:33:44.662Z,11.77
2023-04-23T21:36:50.001Z,10.90
2023-04-23T21:39:55.998Z,9.10
2023-04-23T21:43:04.276Z,10.45
2023-04-23T21:46:09.818Z,9.45
2023-04-23T21:49:15.156Z,11.55
2023-04-23T21:52:20.532Z,10.50
2023-04-23T21:55:25.898Z,11.70
2023-04-23T21:58:35.409Z,10.25
2023-04-23T22:01:42.394Z,10.90
2023-04-23T22:04:47.561Z,12.52
2023-04-23T22:07:55.516Z,12.50
2023-04-23T22:11:03.203Z,11.13
2023-04-23T22:14:11.573Z,10.95
2023-04-23T22:17:20.400Z,12.75
2023-04-23T22:20:27.340Z,11.82
2023-04-23T22:23:32.362Z,12.82
2023-04-23T22:26:40.488Z,13.05
2023-04-23T22:29:48.071Z,14.05
2023-04-23T22:32:56.008Z,10.85
2023-04-23T22:36:01.501Z,14.30
2023-04-23T22:39:07.656Z,16.52
2023-04-23T22:42:12.673Z,15.63
2023-04-23T22:45:24.935Z,18.42
2023-04-23T22:48:33.302Z,15.35
2023-04-23T22:51:40.071Z,15.65
2023-04-23T22:54:45.215Z,16.00
2023-04-23T22:57:50.546Z,15.35
2023-04-23T23:00:58.776Z,15.32
2023-04-23T23:04:04.541Z,16.65
2023-04-23T23:07:10.278Z,16.40
2023-04-23T23:10:15.843Z,15.05
2023-04-23T23:13:20.902Z,16.00
2023-04-23T23:16:30.722Z,14.95
2023-04-23T23:19:35.944Z,16.38
2023-04-23T23:22:42.538Z,16.65
2023-04-23T23:25:47.554Z,15.48
2023-04-23T23:28:54.065Z,15.23
2023-04-23T23:32:02.377Z,15.88
2023-04-23T23:35:09.544Z,15.77
2023-04-23T23:38:14.954Z,16.13
2023-04-23T23:41:20.505Z,15.05
2023-04-23T23:44:25.504Z,15.25
2023-04-23T23:47:34.938Z,15.15
2023-04-23T23:50:40.420Z,13.95
2023-04-23T23:53:46.232Z,13.20
2023-04-23T23:56:51.429Z,12.85
2023-04-23T23:59:57.237Z,12.55
